Time;durP1;ratioP1;P1;durP2;ratioP2;P2;SDS_P1;SDS_P2;PMS_P1;PMS_P2;Temp;Humidity;BMP_temperature;BMP_pressure;BME280_temperature;BME280_humidity;BME280_pressure;Samples;Min_cycle;Max_cycle;Signal;HPM_P1;HPM_P2
2021/12/12 00:01:53;;;;;;;77.90;29.30;;;2.90;74.70;;;;;;5016097;28;20113;-85
2021/12/12 00:04:31;;;;;;;75.40;28.33;;;3.00;74.60;;;;;;5016126;28;20056;-85
2021/12/12 00:06:58;;;;;;;75.80;29.10;;;3.00;74.40;;;;;;5015632;28;20036;-85
2021/12/12 00:09:30;;;;;;;70.43;29.30;;;3.00;74.30;;;;;;5015877;28;20505;-86
2021/12/12 00:11:56;;;;;;;69.77;28.33;;;3.00;74.20;;;;;;5015473;28;20029;-85
2021/12/12 00:14:29;;;;;;;62.93;26.90;;;3.00;74.10;;;;;;5015463;28;20026;-85
2021/12/12 00:16:56;;;;;;;70.07;27.67;;;3.10;74.00;;;;;;5015962;28;20018;-85
2021/12/12 00:19:22;;;;;;;69.10;28.43;;;3.10;73.80;;;;;;5015490;28;20104;-84
2021/12/12 00:21:51;;;;;;;70.03;28.60;;;3.10;73.70;;;;;;5016349;28;20079;-84
2021/12/12 00:24:17;;;;;;;62.07;26.20;;;3.10;73.50;;;;;;5016779;28;20057;-85
2021/12/12 00:26:46;;;;;;;62.57;25.67;;;3.00;73.50;;;;;;5015760;28;20394;-85
2021/12/12 00:29:15;;;;;;;74.83;33.37;;;3.10;73.30;;;;;;5016808;28;20034;-85
2021/12/12 00:31:42;;;;;;;86.93;38.73;;;3.00;73.30;;;;;;5014980;28;20054;-84
2021/12/12 00:34:10;;;;;;;97.93;38.57;;;3.00;73.30;;;;;;5016302;28;20168;-85
2021/12/12 00:36:38;;;;;;;87.57;35.63;;;3.00;73.20;;;;;;5015621;28;20026;-86
2021/12/12 00:39:15;;;;;;;76.33;32.40;;;3.00;73.20;;;;;;5015718;28;20394;-85
2021/12/12 00:41:50;;;;;;;73.13;31.37;;;3.00;73.10;;;;;;5017317;28;20502;-85
2021/12/12 00:44:17;;;;;;;86.70;33.60;;;3.00;73.10;;;;;;5015420;28;20036;-85
2021/12/12 00:46:43;;;;;;;82.90;34.20;;;3.00;73.10;;;;;;5015754;28;20121;-85
2021/12/12 00:49:10;;;;;;;81.23;31.70;;;3.00;73.10;;;;;;5015769;28;20050;-84
2021/12/12 00:51:39;;;;;;;73.60;32.67;;;3.10;73.10;;;;;;5015175;28;20022;-84
2021/12/12 00:54:08;;;;;;;78.47;33.97;;;3.00;73.10;;;;;;5015138;28;20075;-85
2021/12/12 00:56:33;;;;;;;88.97;36.23;;;3.10;73.10;;;;;;5014916;28;20032;-86
2021/12/12 00:59:00;;;;;;;;;;;3.10;73.10;;;;;;5016009;28;20014;-85
2021/12/12 01:01:35;;;;;;;83.13;36.00;;;3.00;73.20;;;;;;5015053;28;20340;-84
2021/12/12 01:04:07;;;;;;;95.80;37.80;;;3.10;73.00;;;;;;5014921;28;20026;-85
2021/12/12 01:06:34;;;;;;;93.87;38.50;;;3.10;73.10;;;;;;5015126;28;20120;-85
2021/12/12 01:09:04;;;;;;;129.20;47.17;;;3.10;73.20;;;;;;5014775;28;20426;-85
2021/12/12 01:11:38;;;;;;;136.30;50.80;;;3.00;73.20;;;;;;5015761;28;20483;-86
2021/12/12 01:14:19;;;;;;;99.73;42.80;;;3.00;73.20;;;;;;5016028;28;20041;-84
2021/12/12 01:16:59;;;;;;;114.20;42.63;;;3.00;73.20;;;;;;5006691;28;20025;-85
2021/12/12 01:19:36;;;;;;;121.70;42.87;;;2.90;73.20;;;;;;5014365;28;20124;-85
2021/12/12 01:22:07;;;;;;;;;;;2.90;73.20;;;;;;5015199;28;20030;-85
2021/12/12 01:24:37;;;;;;;105.37;40.37;;;2.90;73.40;;;;;;5014279;28;20434;-85
2021/12/12 01:27:05;;;;;;;97.23;37.80;;;2.90;73.10;;;;;;5013921;28;20371;-85
2021/12/12 01:29:31;;;;;;;100.70;38.40;;;2.90;73.20;;;;;;5013748;28;20483;-85
2021/12/12 01:32:01;;;;;;;114.80;37.00;;;2.90;73.20;;;;;;5014078;28;20063;-85
2021/12/12 01:34:29;;;;;;;82.97;33.90;;;2.90;73.20;;;;;;5014101;28;20075;-86
2021/12/12 01:37:12;;;;;;;78.17;30.87;;;2.80;73.20;;;;;;5015366;28;20021;-85
2021/12/12 01:39:44;;;;;;;77.93;32.50;;;2.80;73.10;;;;;;5014798;28;20030;-85
2021/12/12 01:42:17;;;;;;;95.73;35.47;;;2.80;73.10;;;;;;5014355;28;20026;-85
2021/12/12 01:44:52;;;;;;;88.17;32.37;;;2.80;73.10;;;;;;5014448;28;20030;-86
2021/12/12 01:47:27;;;;;;;86.73;32.80;;;2.80;73.10;;;;;;5014653;28;20022;-86
2021/12/12 01:50:01;;;;;;;87.50;34.73;;;2.70;73.10;;;;;;5014463;28;20029;-85
2021/12/12 01:52:29;;;;;;;103.50;38.30;;;2.70;73.00;;;;;;5014917;28;20065;-85
2021/12/12 01:55:06;;;;;;;110.90;38.53;;;2.70;73.10;;;;;;5014820;28;20474;-85
2021/12/12 01:57:35;;;;;;;86.73;33.47;;;2.70;73.10;;;;;;5014342;28;20034;-85
2021/12/12 02:00:14;;;;;;;92.27;36.83;;;2.70;73.10;;;;;;5006504;28;20474;-85
2021/12/12 02:02:40;;;;;;;93.77;36.50;;;2.70;73.00;;;;;;5014254;28;20026;-85
2021/12/12 02:05:09;;;;;;;;;;;2.70;73.10;;;;;;5013864;28;20088;-85
2021/12/12 02:07:38;;;;;;;91.70;35.33;;;2.60;73.10;;;;;;5012933;28;19996;-85
2021/12/12 02:10:13;;;;;;;100.50;36.67;;;2.60;72.90;;;;;;5013725;28;20026;-85
2021/12/12 02:12:39;;;;;;;102.57;36.77;;;2.60;73.00;;;;;;5013805;28;20060;-85
2021/12/12 02:15:09;;;;;;;;;;;2.60;73.20;;;;;;5014381;28;20030;-86
2021/12/12 02:17:41;;;;;;;92.40;32.87;;;2.60;73.30;;;;;;5014109;28;19909;-86
2021/12/12 02:36:18;;;;;;;88.10;35.63;;;2.50;73.30;;;;;;5007224;28;20120;-83
2021/12/12 02:38:45;;;;;;;85.70;33.70;;;2.50;73.30;;;;;;5013360;28;20052;-84
2021/12/12 02:41:13;;;;;;;80.40;32.67;;;2.50;73.40;;;;;;5014131;28;20034;-84
2021/12/12 02:43:46;;;;;;;82.67;33.70;;;2.50;73.40;;;;;;5014150;28;20113;-84
2021/12/12 02:46:17;;;;;;;89.00;33.33;;;2.40;73.40;;;;;;5014257;28;20084;-85
2021/12/12 02:48:52;;;;;;;81.13;30.50;;;2.40;73.40;;;;;;5014753;28;20037;-85
2021/12/12 02:51:19;;;;;;;83.43;33.80;;;2.40;73.50;;;;;;5019012;28;20415;-85
2021/12/12 02:53:56;;;;;;;85.13;34.70;;;2.40;73.50;;;;;;5017770;28;20471;-85
2021/12/12 02:56:25;;;;;;;84.60;32.65;;;2.40;73.50;;;;;;5019043;28;20030;-86
2021/12/12 02:58:51;;;;;;;86.63;34.03;;;2.40;73.50;;;;;;5017567;28;20026;-85
2021/12/12 03:01:41;;;;;;;88.93;34.83;;;2.40;73.50;;;;;;5017581;28;20030;-85
2021/12/12 03:04:07;;;;;;;78.73;32.40;;;2.30;73.60;;;;;;5017412;28;20061;-84
2021/12/12 03:06:36;;;;;;;71.60;30.93;;;2.30;73.60;;;;;;5017177;28;20034;-85
2021/12/12 03:09:12;;;;;;;81.07;31.70;;;2.30;73.60;;;;;;5017615;28;20463;-84
2021/12/12 03:11:38;;;;;;;73.90;28.27;;;2.40;73.70;;;;;;5017728;28;20026;-85
2021/12/12 03:14:05;;;;;;;78.07;29.03;;;2.30;73.70;;;;;;5017456;28;20491;-85
2021/12/12 03:16:32;;;;;;;67.80;29.40;;;2.40;73.60;;;;;;5017316;28;20033;-85
2021/12/12 03:18:58;;;;;;;77.37;29.20;;;2.40;73.70;;;;;;5018452;28;20026;-85
2021/12/12 03:21:32;;;;;;;;;;;2.40;73.70;;;;;;5017054;28;20029;-86
2021/12/12 03:24:05;;;;;;;68.37;26.73;;;2.40;73.70;;;;;;5016967;28;19909;-85
2021/12/12 03:26:32;;;;;;;66.47;28.17;;;2.40;73.40;;;;;;5016217;28;20022;-85
2021/12/12 03:28:59;;;;;;;66.63;27.67;;;2.40;73.60;;;;;;5016162;28;20014;-83
2021/12/12 03:31:29;;;;;;;73.40;28.17;;;2.40;73.60;;;;;;5015924;28;20036;-84
2021/12/12 03:33:55;;;;;;;73.37;30.23;;;2.30;73.70;;;;;;5016506;28;20033;-84
2021/12/12 03:36:21;;;;;;;;;;;2.40;73.80;;;;;;5017741;28;20026;-84
2021/12/12 03:38:57;;;;;;;75.47;28.97;;;2.40;73.90;;;;;;5016574;28;19908;-85
2021/12/12 03:41:27;;;;;;;84.25;32.30;;;2.40;73.60;;;;;;5016965;28;20018;-85
2021/12/12 03:43:55;;;;;;;85.00;32.23;;;2.50;73.60;;;;;;5016654;28;20084;-85
2021/12/12 03:46:21;;;;;;;90.80;34.90;;;2.50;73.70;;;;;;5016865;28;20034;-84
2021/12/12 03:48:48;;;;;;;;;;;2.50;73.70;;;;;;5016284;28;20084;-85
2021/12/12 03:51:19;;;;;;;80.47;33.43;;;2.50;73.80;;;;;;5016270;28;19913;-85
2021/12/12 03:53:47;;;;;;;81.80;32.87;;;2.50;73.50;;;;;;5015990;28;20033;-84
2021/12/12 03:56:15;;;;;;;75.43;32.23;;;2.50;73.60;;;;;;5017223;28;20533;-86
2021/12/12 03:58:43;;;;;;;88.53;36.50;;;2.50;73.70;;;;;;5016058;28;20026;-85
2021/12/12 04:01:14;;;;;;;92.53;34.97;;;2.50;73.70;;;;;;5015566;28;20034;-85
2021/12/12 04:03:42;;;;;;;87.87;35.90;;;2.50;73.70;;;;;;5015839;28;20059;-85
2021/12/12 04:06:12;;;;;;;86.40;35.97;;;2.50;73.80;;;;;;5016590;28;20034;-84
2021/12/12 04:08:41;;;;;;;90.83;35.57;;;2.50;73.80;;;;;;5015772;28;20538;-85
2021/12/12 04:11:26;;;;;;;91.40;36.33;;;2.40;73.80;;;;;;5015708;28;20025;-86
2021/12/12 04:13:54;;;;;;;90.70;35.27;;;2.40;73.90;;;;;;5016092;28;20014;-86
2021/12/12 04:16:21;;;;;;;98.57;39.90;;;2.40;73.90;;;;;;5015894;28;20030;-86
2021/12/12 04:18:47;;;;;;;98.10;37.97;;;2.40;73.90;;;;;;5015852;28;20081;-85
2021/12/12 04:21:16;;;;;;;;;;;2.40;74.00;;;;;;5016484;28;20026;-85
2021/12/12 04:23:42;;;;;;;101.57;37.57;;;2.40;74.00;;;;;;5015980;28;19911;-85
2021/12/12 04:26:13;;;;;;;;;;;2.40;73.70;;;;;;5016616;28;20026;-85
2021/12/12 04:28:40;;;;;;;98.30;36.97;;;2.40;73.90;;;;;;5016055;28;19916;-85
2021/12/12 04:31:05;;;;;;;100.07;38.80;;;2.40;73.70;;;;;;5015725;28;20030;-84
2021/12/12 04:33:31;;;;;;;;;;;2.40;73.80;;;;;;5016401;28;20112;-85
2021/12/12 04:35:57;;;;;;;109.07;38.60;;;2.40;74.00;;;;;;5015820;28;19912;-85
2021/12/12 04:38:23;;;;;;;100.75;40.35;;;2.40;73.70;;;;;;5015757;28;20132;-87
2021/12/12 04:40:49;;;;;;;96.30;39.57;;;2.40;73.90;;;;;;5015971;28;20029;-85
2021/12/12 04:43:15;;;;;;;104.03;42.53;;;2.40;73.90;;;;;;5015227;28;20025;-84
2021/12/12 04:46:03;;;;;;;;;;;2.50;74.00;;;;;;5015986;28;20503;-85
2021/12/12 04:51:24;;;;;;;101.27;39.33;;;2.50;73.70;;;;;;5010146;28;20064;-85
2021/12/12 04:53:54;;;;;;;106.53;41.97;;;2.50;73.80;;;;;;5015894;28;20109;-85
2021/12/12 04:56:28;;;;;;;103.67;42.20;;;2.60;73.90;;;;;;5015415;28;20463;-84
2021/12/12 04:59:16;;;;;;;111.37;42.77;;;2.50;74.00;;;;;;5015456;28;20475;-85
2021/12/12 05:02:03;;;;;;;96.40;41.43;;;2.50;74.00;;;;;;5015510;28;20030;-86
2021/12/12 05:04:46;;;;;;;100.93;36.70;;;2.50;74.00;;;;;;5008946;28;20041;-84
2021/12/12 05:07:34;;;;;;;94.63;37.13;;;2.50;74.00;;;;;;5015388;28;20057;-84
2021/12/12 05:10:17;;;;;;;91.03;35.80;;;2.50;73.90;;;;;;5015385;28;20522;-85
2021/12/12 05:12:51;;;;;;;93.87;37.87;;;2.50;73.80;;;;;;4996538;28;20133;-85
2021/12/12 05:15:19;;;;;;;110.30;44.73;;;2.40;73.90;;;;;;5006844;28;20475;-85
2021/12/12 05:18:11;;;;;;;113.97;44.23;;;2.40;74.00;;;;;;5016950;28;20553;-85
2021/12/12 05:20:42;;;;;;;93.40;43.17;;;2.30;74.20;;;;;;4992783;28;20034;-86
2021/12/12 05:23:12;;;;;;;96.80;41.93;;;2.30;74.10;;;;;;5015294;28;20029;-85
2021/12/12 05:25:45;;;;;;;98.43;41.57;;;2.30;74.20;;;;;;5014853;28;20060;-85
2021/12/12 05:28:11;;;;;;;95.10;38.10;;;2.30;74.20;;;;;;5014362;28;20127;-84
2021/12/12 05:30:38;;;;;;;86.63;34.87;;;2.30;74.30;;;;;;4994689;28;20166;-85
2021/12/12 05:33:05;;;;;;;87.37;36.80;;;2.30;74.30;;;;;;5011297;28;20049;-85
2021/12/12 05:35:35;;;;;;;104.10;41.73;;;2.30;74.30;;;;;;5014420;28;20002;-85
2021/12/12 05:38:01;;;;;;;99.40;38.40;;;2.30;74.40;;;;;;5014558;28;20046;-85
2021/12/12 05:40:31;;;;;;;110.37;40.57;;;2.30;74.40;;;;;;5014066;28;20442;-85
2021/12/12 05:43:00;;;;;;;106.80;44.47;;;2.30;74.30;;;;;;5013882;28;20121;-86
2021/12/12 05:45:27;;;;;;;103.70;43.17;;;2.30;74.40;;;;;;5013606;28;20084;-86
2021/12/12 05:47:53;;;;;;;104.60;40.30;;;2.30;74.40;;;;;;5015519;28;20116;-85
2021/12/12 05:50:19;;;;;;;;;;;2.30;74.50;;;;;;5015026;28;20529;-85
2021/12/12 05:52:46;;;;;;;89.97;35.90;;;2.30;74.50;;;;;;5015031;28;20008;-86
2021/12/12 05:55:15;;;;;;;89.40;33.27;;;2.30;74.30;;;;;;5014457;28;20032;-85
2021/12/12 05:57:43;;;;;;;106.20;41.63;;;2.20;74.40;;;;;;5014371;28;20076;-85
2021/12/12 06:00:16;;;;;;;105.83;43.27;;;2.10;74.50;;;;;;5014431;28;20076;-86
2021/12/12 06:02:43;;;;;;;117.90;45.37;;;2.10;74.60;;;;;;5014124;28;20057;-85
2021/12/12 06:05:09;;;;;;;115.57;44.57;;;2.10;74.70;;;;;;5014367;28;20095;-85
2021/12/12 06:07:36;;;;;;;113.70;45.23;;;2.20;74.70;;;;;;5015322;28;20034;-85
2021/12/12 06:10:08;;;;;;;110.17;43.90;;;2.20;74.80;;;;;;5014814;28;20025;-85
2021/12/12 06:12:36;;;;;;;105.73;40.83;;;2.20;74.80;;;;;;5014527;28;20037;-85
2021/12/12 06:15:07;;;;;;;116.50;45.23;;;2.20;74.80;;;;;;5015280;28;20026;-89
2021/12/12 06:17:33;;;;;;;106.40;43.33;;;2.20;74.80;;;;;;5015761;28;20029;-88
2021/12/12 06:20:01;;;;;;;103.10;37.90;;;2.20;74.80;;;;;;5015804;28;20072;-88
2021/12/12 06:22:28;;;;;;;112.60;45.37;;;2.20;74.90;;;;;;5017479;28;20038;-88
2021/12/12 06:24:54;;;;;;;113.57;44.90;;;2.20;74.90;;;;;;5015752;28;20022;-89
2021/12/12 06:27:21;;;;;;;141.07;51.00;;;2.20;74.90;;;;;;5014830;28;20034;-89
2021/12/12 06:29:56;;;;;;;124.30;47.93;;;2.10;75.00;;;;;;5015259;28;20426;-88
2021/12/12 06:32:23;;;;;;;111.20;43.43;;;2.20;75.00;;;;;;5016798;28;20026;-88
2021/12/12 06:34:50;;;;;;;134.77;48.97;;;2.20;75.00;;;;;;5014625;28;20033;-88
2021/12/12 06:37:18;;;;;;;107.87;43.83;;;2.20;75.00;;;;;;5014808;28;20148;-88
2021/12/12 06:39:44;;;;;;;113.33;43.37;;;2.20;75.10;;;;;;5015423;28;20483;-88
2021/12/12 06:42:14;;;;;;;136.53;45.10;;;2.10;75.10;;;;;;5016079;28;20026;-89
2021/12/12 06:44:42;;;;;;;186.03;60.13;;;2.20;75.10;;;;;;5015804;28;20088;-89
2021/12/12 06:47:08;;;;;;;133.60;52.07;;;2.20;75.20;;;;;;5015384;28;20109;-89
2021/12/12 06:49:37;;;;;;;137.53;50.97;;;2.10;75.20;;;;;;5015169;28;20021;-88
2021/12/12 06:52:06;;;;;;;125.60;50.73;;;2.20;75.20;;;;;;5014668;28;20061;-88
2021/12/12 06:54:32;;;;;;;142.87;54.40;;;2.20;75.20;;;;;;5014635;28;20030;-88
2021/12/12 06:57:01;;;;;;;134.37;51.93;;;2.30;75.30;;;;;;5014761;28;20026;-88
2021/12/12 06:59:30;;;;;;;132.63;49.70;;;2.30;75.30;;;;;;5015259;28;20044;-88
2021/12/12 07:01:57;;;;;;;133.47;51.40;;;2.30;75.20;;;;;;5014692;28;20042;-88
2021/12/12 07:04:23;;;;;;;129.43;50.10;;;2.30;75.20;;;;;;5015066;28;20032;-88
2021/12/12 07:06:57;;;;;;;127.57;50.50;;;2.30;75.20;;;;;;5014648;28;20120;-88
2021/12/12 07:09:23;;;;;;;122.97;49.67;;;2.40;75.20;;;;;;5014830;28;20026;-89
2021/12/12 07:11:48;;;;;;;;;;;2.50;75.20;;;;;;5015682;28;20419;-89
2021/12/12 07:14:16;;;;;;;141.63;47.73;;;2.50;75.20;;;;;;5015947;28;19999;-88
2021/12/12 07:16:43;;;;;;;132.80;51.10;;;2.60;74.80;;;;;;5014254;28;20026;-89
2021/12/12 07:19:09;;;;;;;135.87;52.40;;;2.50;74.90;;;;;;5014474;28;20025;-89
2021/12/12 07:21:35;;;;;;;;;;;2.50;74.90;;;;;;5014693;28;20080;-89
2021/12/12 07:24:04;;;;;;;124.70;49.17;;;2.50;75.00;;;;;;5013015;28;19999;-89
2021/12/12 07:26:29;;;;;;;130.57;49.17;;;2.60;74.80;;;;;;5014957;28;20273;-88
2021/12/12 07:28:56;;;;;;;;;;;2.60;74.80;;;;;;5015500;28;20060;-90
2021/12/12 07:31:26;;;;;;;121.68;46.08;;;2.70;74.90;;;;;;5014400;28;20475;-89
2021/12/12 07:33:56;;;;;;;102.10;42.60;;;2.70;74.60;;;;;;5014837;28;20030;-87
2021/12/12 07:36:23;;;;;;;118.00;45.87;;;2.80;74.70;;;;;;5017439;28;20026;-87
2021/12/12 07:38:56;;;;;;;110.20;44.80;;;2.80;74.70;;;;;;5018101;28;20053;-87
2021/12/12 07:41:27;;;;;;;114.73;46.23;;;2.80;74.70;;;;;;5016151;28;20034;-87
2021/12/12 07:43:54;;;;;;;104.37;43.77;;;2.80;74.70;;;;;;5016970;28;20033;-86
2021/12/12 07:46:20;;;;;;;109.47;44.93;;;2.80;74.70;;;;;;5017324;28;20061;-88
2021/12/12 07:48:47;;;;;;;;;;;2.80;74.70;;;;;;5018769;28;20080;-85
2021/12/12 07:51:14;;;;;;;110.10;43.83;;;2.80;74.80;;;;;;5017380;28;19912;-87
2021/12/12 07:53:40;;;;;;;119.67;47.60;;;2.80;74.70;;;;;;5016767;28;20453;-88
2021/12/12 07:56:06;;;;;;;115.87;47.73;;;2.70;74.80;;;;;;5016313;28;20109;-88
2021/12/12 07:58:31;;;;;;;;;;;2.70;74.90;;;;;;5016902;28;20117;-88
2021/12/12 08:00:59;;;;;;;124.60;50.00;;;2.80;75.00;;;;;;5016381;28;19912;-87
2021/12/12 08:03:33;;;;;;;114.97;47.60;;;2.80;74.70;;;;;;5015900;28;20034;-88
2021/12/12 08:06:00;;;;;;;113.13;45.47;;;2.80;74.60;;;;;;5016558;28;20026;-89
2021/12/12 08:08:27;;;;;;;109.27;46.73;;;2.80;74.70;;;;;;5016391;28;20080;-87
2021/12/12 08:10:55;;;;;;;128.67;49.50;;;2.80;74.80;;;;;;5016625;28;20538;-87
2021/12/12 08:13:21;;;;;;;123.07;49.43;;;2.70;74.80;;;;;;5015313;28;20113;-85
2021/12/12 08:15:49;;;;;;;;;;;2.50;74.90;;;;;;5016789;28;20057;-86
2021/12/12 08:18:18;;;;;;;97.00;40.30;;;2.40;75.10;;;;;;5016082;28;19917;-84
2021/12/12 08:20:46;;;;;;;110.50;44.80;;;2.40;74.90;;;;;;5016439;28;20022;-87
2021/12/12 08:23:13;;;;;;;131.20;51.00;;;2.30;75.10;;;;;;5017071;28;20471;-82
2021/12/12 08:25:39;;;;;;;181.47;66.83;;;2.20;75.30;;;;;;5017110;28;20036;-83
2021/12/12 08:28:05;;;;;;;212.17;74.03;;;2.10;75.40;;;;;;5016340;28;20025;-83
2021/12/12 08:30:32;;;;;;;;;;;2.10;75.50;;;;;;5016230;28;20442;-83
2021/12/12 08:32:58;;;;;;;115.72;41.75;;;2.10;75.60;;;;;;5017215;28;19905;-83
2021/12/12 08:35:26;;;;;;;139.67;55.20;;;2.10;75.30;;;;;;5016863;28;20038;-84
2021/12/12 08:37:52;;;;;;;135.87;54.57;;;2.10;75.30;;;;;;5016625;28;20111;-83
2021/12/12 08:40:23;;;;;;;;;;;2.00;75.40;;;;;;5015838;28;20033;-83
2021/12/12 08:42:51;;;;;;;126.27;51.67;;;2.00;75.50;;;;;;5015574;28;19912;-84
2021/12/12 08:45:20;;;;;;;123.50;50.43;;;1.90;75.30;;;;;;5015127;28;20037;-84
2021/12/12 08:47:50;;;;;;;108.93;47.23;;;1.80;75.60;;;;;;5014635;28;20026;-84
2021/12/12 08:50:21;;;;;;;115.60;46.97;;;1.80;75.80;;;;;;5016397;28;20475;-87
2021/12/12 08:52:49;;;;;;;111.80;49.27;;;1.80;75.90;;;;;;5017220;28;20049;-84
2021/12/12 08:55:19;;;;;;;126.17;51.20;;;1.80;75.90;;;;;;5014893;28;20014;-83
2021/12/12 08:58:02;;;;;;;124.20;47.03;;;1.90;76.00;;;;;;5014529;28;20026;-84
2021/12/12 09:00:32;;;;;;;111.03;43.87;;;1.90;76.10;;;;;;5014780;28;20089;-84
2021/12/12 09:02:58;;;;;;;120.27;48.57;;;2.00;76.00;;;;;;5014725;28;20034;-84
2021/12/12 09:05:30;;;;;;;106.63;47.37;;;2.00;76.00;;;;;;5015746;28;20029;-83
2021/12/12 09:08:04;;;;;;;117.03;46.67;;;2.10;76.00;;;;;;5014288;28;20033;-83
2021/12/12 09:10:55;;;;;;;99.47;41.87;;;2.10;76.00;;;;;;5014288;28;20372;-82
2021/12/12 09:13:29;;;;;;;110.10;45.93;;;2.10;75.90;;;;;;4996460;28;20141;-82
2021/12/12 09:16:21;;;;;;;94.03;38.00;;;2.20;75.80;;;;;;5014591;28;20021;-84
2021/12/12 09:18:58;;;;;;;43.90;18.93;;;2.30;75.80;;;;;;5014548;28;20026;-84
2021/12/12 09:21:32;;;;;;;89.30;36.27;;;2.30;75.50;;;;;;5014220;28;20034;-83
2021/12/12 09:24:10;;;;;;;94.03;36.33;;;2.40;75.40;;;;;;5014196;28;20076;-83
2021/12/12 09:26:39;;;;;;;97.50;42.93;;;2.40;75.30;;;;;;5014141;28;20092;-84
2021/12/12 09:29:14;;;;;;;93.53;38.40;;;2.50;75.30;;;;;;5014495;28;20598;-84
2021/12/12 09:31:49;;;;;;;86.83;37.67;;;2.60;75.30;;;;;;5014220;28;20513;-83
2021/12/12 09:34:25;;;;;;;84.20;34.47;;;2.60;75.20;;;;;;5013868;28;20486;-84
2021/12/12 09:37:05;;;;;;;84.70;36.20;;;2.70;75.10;;;;;;5014051;28;20171;-84
2021/12/12 09:39:49;;;;;;;82.90;35.40;;;2.80;75.00;;;;;;5014251;28;20029;-83
2021/12/12 09:42:23;;;;;;;78.53;31.67;;;2.90;74.70;;;;;;5013889;28;20030;-84
2021/12/12 09:44:55;;;;;;;68.10;32.07;;;3.00;74.40;;;;;;5013841;28;20038;-84
2021/12/12 09:47:45;;;;;;;69.17;32.70;;;3.10;74.30;;;;;;5013662;28;20116;-84
2021/12/12 09:54:00;;;;;;;77.43;32.10;;;3.30;74.10;;;;;;4974044;28;20515;-83
2021/12/12 09:57:02;;;;;;;65.13;28.07;;;3.60;73.90;;;;;;5001192;28;20026;-85
2021/12/12 09:59:39;;;;;;;62.83;27.10;;;4.30;72.60;;;;;;5013568;28;20785;-84
2021/12/12 10:02:21;;;;;;;55.33;28.13;;;5.30;70.90;;;;;;5014759;28;20473;-87
2021/12/12 10:05:11;;;;;;;64.40;28.93;;;6.30;68.80;;;;;;5014199;28;20026;-86
2021/12/12 10:07:49;;;;;;;61.70;28.83;;;7.40;66.80;;;;;;5008273;28;20506;-84
2021/12/12 10:10:37;;;;;;;63.90;30.25;;;8.30;65.10;;;;;;5017432;28;20022;-85
2021/12/12 10:13:18;;;;;;;67.03;30.95;;;9.10;63.20;;;;;;5018011;28;20057;-84
2021/12/12 10:15:55;;;;;;;67.53;32.08;;;9.80;61.60;;;;;;5016835;28;20501;-85
2021/12/12 10:18:48;;;;;;;55.88;27.48;;;10.30;60.00;;;;;;5016794;28;20398;-86
2021/12/12 10:21:21;;;;;;;61.63;29.85;;;10.90;59.20;;;;;;5013495;28;20034;-84
2021/12/12 10:24:04;;;;;;;55.53;29.23;;;11.50;57.70;;;;;;5012872;28;20040;-84
2021/12/12 10:26:44;;;;;;;59.60;29.42;;;11.90;55.60;;;;;;5012842;28;20437;-84
2021/12/12 10:33:04;;;;;;;58.80;28.55;;;12.80;53.00;;;;;;5015029;28;20566;-85
2021/12/12 10:35:45;;;;;;;65.38;31.10;;;13.40;52.20;;;;;;5013920;28;20434;-84
2021/12/12 10:38:26;;;;;;;56.20;28.73;;;13.80;51.00;;;;;;5012793;28;20454;-83
2021/12/12 10:41:09;;;;;;;58.45;30.00;;;14.00;49.40;;;;;;5014236;28;20026;-83
2021/12/12 10:43:42;;;;;;;48.83;26.13;;;14.00;49.20;;;;;;5012841;28;20374;-83
2021/12/12 10:46:19;;;;;;;54.88;29.45;;;14.10;48.90;;;;;;5014472;28;20026;-84
2021/12/12 10:49:13;;;;;;;57.50;30.92;;;14.00;48.50;;;;;;5014828;28;20033;-86
2021/12/12 10:51:45;;;;;;;49.28;27.10;;;13.60;48.30;;;;;;5015679;28;20383;-87
2021/12/12 10:54:26;;;;;;;57.42;28.85;;;13.10;48.80;;;;;;5013535;28;20030;-85
2021/12/12 10:57:04;;;;;;;48.33;27.15;;;12.60;49.00;;;;;;5014946;28;20474;-86
2021/12/12 10:59:39;;;;;;;47.80;26.08;;;12.20;49.20;;;;;;5014199;28;20030;-86
2021/12/12 11:02:09;;;;;;;44.95;23.88;;;11.80;49.70;;;;;;5014875;28;20025;-87
2021/12/12 11:04:48;;;;;;;41.08;21.67;;;11.40;50.20;;;;;;5015358;28;20414;-87
2021/12/12 11:07:22;;;;;;;23.77;12.05;;;11.20;49.90;;;;;;5015146;28;20100;-85
2021/12/12 11:09:56;;;;;;;21.10;11.57;;;11.30;49.80;;;;;;5015446;28;20055;-87
2021/12/12 11:12:34;;;;;;;21.63;12.55;;;11.20;49.60;;;;;;5018916;28;20390;-87
2021/12/12 11:15:11;;;;;;;28.20;12.32;;;11.10;49.40;;;;;;5020145;28;20029;-87
2021/12/12 11:17:41;;;;;;;29.58;12.50;;;10.90;49.40;;;;;;5018799;28;20026;-88
2021/12/12 11:20:17;;;;;;;23.55;12.07;;;10.90;49.40;;;;;;5018185;28;20030;-87
2021/12/12 11:22:51;;;;;;;26.25;11.40;;;10.80;49.30;;;;;;5018140;28;20454;-88
2021/12/12 11:25:34;;;;;;;22.92;12.15;;;11.20;48.60;;;;;;5018725;28;20378;-87
2021/12/12 11:28:07;;;;;;;26.90;11.70;;;11.70;47.60;;;;;;5019708;28;20025;-86
2021/12/12 11:30:41;;;;;;;25.90;13.50;;;11.90;46.70;;;;;;5019144;28;20023;-86
2021/12/12 11:33:11;;;;;;;24.00;12.55;;;11.90;46.80;;;;;;5019061;28;20025;-88
2021/12/12 11:35:44;;;;;;;21.95;12.77;;;11.70;46.80;;;;;;5018441;28;20025;-87
2021/12/12 11:38:12;;;;;;;23.52;11.93;;;11.40;47.50;;;;;;5018515;28;20104;-87
2021/12/12 11:44:34;;;;;;;25.60;12.45;;;11.10;47.60;;;;;;5027263;28;20041;-88
2021/12/12 11:47:08;;;;;;;28.58;13.90;;;10.80;47.60;;;;;;5026097;28;20033;-89
2021/12/12 11:49:51;;;;;;;25.90;13.63;;;10.60;48.10;;;;;;5026251;28;20018;-88
2021/12/12 11:52:33;;;;;;;29.33;13.63;;;10.30;48.30;;;;;;5023797;28;20022;-88
2021/12/12 11:55:28;;;;;;;23.05;11.90;;;10.10;48.60;;;;;;5021199;28;20034;-89
2021/12/12 11:58:04;;;;;;;31.45;13.20;;;9.90;48.70;;;;;;5019528;28;20037;-89
2021/12/12 12:00:38;;;;;;;25.65;13.18;;;9.80;48.60;;;;;;5019447;28;20033;-88
2021/12/12 12:03:14;;;;;;;27.65;13.55;;;9.60;48.80;;;;;;5019497;28;20030;-89
2021/12/12 12:05:56;;;;;;;27.02;12.68;;;9.40;49.10;;;;;;5018516;28;20125;-88
2021/12/12 12:08:35;;;;;;;29.80;13.45;;;9.30;49.30;;;;;;5018676;28;20049;-89
2021/12/12 12:11:24;;;;;;;27.15;12.63;;;9.20;49.50;;;;;;5017734;28;20026;-89
2021/12/12 12:13:54;;;;;;;19.50;10.35;;;9.10;49.70;;;;;;5018291;28;20018;-90
2021/12/12 12:16:37;;;;;;;25.85;11.45;;;9.10;49.60;;;;;;5018016;28;20386;-88
2021/12/12 12:19:35;;;;;;;24.27;12.00;;;8.90;49.40;;;;;;5017390;28;20038;-87
2021/12/12 12:22:33;;;;;;;26.73;11.85;;;8.80;49.70;;;;;;5017532;28;20033;-89
2021/12/12 12:25:20;;;;;;;25.33;12.32;;;8.60;49.90;;;;;;5017443;28;20029;-90
2021/12/12 12:27:57;;;;;;;26.85;13.65;;;8.40;50.10;;;;;;5018197;28;20026;-87
2021/12/12 12:30:31;;;;;;;24.42;12.80;;;8.30;50.40;;;;;;5018098;28;20096;-87
2021/12/12 12:33:35;;;;;;;29.45;13.30;;;8.30;50.60;;;;;;5017685;28;20034;-87
2021/12/12 12:36:38;;;;;;;26.45;11.80;;;8.20;50.60;;;;;;5013542;28;20057;-87
2021/12/12 12:39:22;;;;;;;27.08;13.43;;;8.20;50.80;;;;;;5017675;28;20174;-88
2021/12/12 12:42:26;;;;;;;29.92;13.15;;;8.20;50.90;;;;;;4998536;28;20038;-89
2021/12/12 12:45:30;;;;;;;32.22;14.32;;;8.10;50.90;;;;;;5001344;28;20549;-88
2021/12/12 12:48:27;;;;;;;28.20;12.98;;;8.10;51.20;;;;;;5016560;28;20044;-87
2021/12/12 12:51:31;;;;;;;23.85;10.52;;;8.00;51.10;;;;;;5016157;28;20022;-88
2021/12/12 12:54:19;;;;;;;26.95;14.05;;;7.80;51.20;;;;;;4996771;28;20031;-88
2021/12/12 12:56:56;;;;;;;30.15;12.88;;;7.50;51.50;;;;;;4997516;28;20030;-88
2021/12/12 13:00:06;;;;;;;31.15;15.05;;;7.30;51.70;;;;;;5014507;28;20034;-88
2021/12/12 13:02:57;;;;;;;29.03;13.63;;;7.00;52.10;;;;;;4960619;28;20100;-89
2021/12/12 13:05:49;;;;;;;38.30;15.35;;;6.90;52.30;;;;;;4960802;28;20026;-88
2021/12/12 13:08:46;;;;;;;32.22;13.98;;;6.80;52.50;;;;;;5007545;28;20129;-89
2021/12/12 13:11:15;;;;;;;24.60;10.80;;;6.60;52.60;;;;;;5016657;28;20117;-89
2021/12/12 13:13:52;;;;;;;28.08;13.90;;;6.40;52.90;;;;;;5016799;28;20385;-88
2021/12/12 13:16:38;;;;;;;32.57;14.67;;;6.30;53.20;;;;;;5016971;28;20053;-89
2021/12/12 13:19:11;;;;;;;57.55;24.40;;;6.10;53.60;;;;;;5016178;28;20033;-91
2021/12/12 13:22:02;;;;;;;75.97;31.97;;;5.90;54.00;;;;;;5016644;28;20117;-86
2021/12/12 13:24:52;;;;;;;86.33;35.00;;;5.80;54.70;;;;;;5016490;28;20044;-86
2021/12/12 13:28:00;;;;;;;92.40;35.07;;;5.50;55.20;;;;;;5015671;28;20033;-83
2021/12/12 13:31:01;;;;;;;81.80;35.22;;;5.30;55.70;;;;;;5015543;28;20025;-86
2021/12/12 13:33:31;;;;;;;78.83;32.80;;;5.10;56.20;;;;;;4992801;28;20499;-85
2021/12/12 13:36:14;;;;;;;87.50;36.60;;;4.90;56.40;;;;;;5015894;28;20033;-87
2021/12/12 13:38:52;;;;;;;97.33;44.40;;;4.70;56.90;;;;;;5016743;28;20041;-86
2021/12/12 13:41:39;;;;;;;106.80;46.97;;;4.40;57.10;;;;;;5015921;28;20483;-85